Time;durP1;ratioP1;P1;durP2;ratioP2;P2;SDS_P1;SDS_P2;PMS_P1;PMS_P2;Temp;Humidity;BMP_temperature;BMP_pressure;BME280_temperature;BME280_humidity;BME280_pressure;Samples;Min_cycle;Max_cycle;Signal;HPM_P1;HPM_P2
2023/01/11 00:01:12;;;;;;;0.00;0.00;;;;;;;;;;5035683;28;20259;-79
2023/01/11 00:03:41;;;;;;;0.00;0.00;;;;;;;;;;5035627;28;20243;-80
2023/01/11 00:06:11;;;;;;;0.00;0.00;;;;;;;;;;5036020;28;20615;-80
2023/01/11 00:08:39;;;;;;;0.00;0.00;;;;;;;;;;5036197;28;20228;-80
2023/01/11 00:11:13;;;;;;;0.00;0.00;;;;;;;;;;5036113;28;20255;-80
2023/01/11 00:13:41;;;;;;;0.00;0.00;;;;;;;;;;5035965;28;20207;-80
2023/01/11 00:16:10;;;;;;;0.00;0.00;;;;;;;;;;5036014;28;20661;-79
2023/01/11 00:18:39;;;;;;;0.00;0.00;;;;;;;;;;5035909;28;20227;-80
2023/01/11 00:21:08;;;;;;;0.00;0.00;;;;;;;;;;5035782;28;20254;-81
2023/01/11 00:23:38;;;;;;;0.00;0.00;;;;;;;;;;5035918;28;20266;-81
2023/01/11 00:26:07;;;;;;;0.00;0.00;;;;;;;;;;5035736;28;20663;-80
2023/01/11 00:28:36;;;;;;;0.00;0.00;;;;;;;;;;5035714;28;20823;-80
2023/01/11 00:31:05;;;;;;;0.00;0.00;;;;;;;;;;5035428;28;20251;-79
2023/01/11 00:33:33;;;;;;;0.00;0.00;;;;;;;;;;5035755;28;20708;-80
2023/01/11 00:36:02;;;;;;;0.00;0.00;;;;;;;;;;5035656;28;20207;-80
2023/01/11 00:38:50;;;;;;;0.00;0.00;;;;;;;;;;5035260;28;20278;-80
2023/01/11 00:49:39;;;;;;;0.00;0.00;;;;;;;;;;5034997;28;20253;-80
2023/01/11 00:52:08;;;;;;;0.00;0.00;;;;;;;;;;5035337;28;20235;-80
2023/01/11 00:54:37;;;;;;;0.00;0.00;;;;;;;;;;5034925;28;20215;-80
2023/01/11 00:57:07;;;;;;;0.00;0.00;;;;;;;;;;5035128;28;20216;-79
2023/01/11 00:59:38;;;;;;;0.00;0.00;;;;;;;;;;5035087;28;20265;-79
2023/01/11 01:02:07;;;;;;;0.00;0.00;;;;;;;;;;5034910;28;20212;-79
2023/01/11 01:04:35;;;;;;;0.00;0.00;;;;;;;;;;5034722;28;20208;-79
2023/01/11 01:07:04;;;;;;;0.00;0.00;;;;;;;;;;5035037;28;20225;-80
2023/01/11 01:09:32;;;;;;;0.00;0.00;;;;;;;;;;5034956;28;20208;-80
2023/01/11 01:12:01;;;;;;;0.00;0.00;;;;;;;;;;5034925;28;20677;-79
2023/01/11 01:14:32;;;;;;;0.00;0.00;;;;;;;;;;5034970;28;20215;-80
2023/01/11 01:17:01;;;;;;;0.00;0.00;;;;;;;;;;5034661;28;21045;-80
2023/01/11 01:19:30;;;;;;;0.00;0.00;;;;;;;;;;5034672;28;20721;-80
2023/01/11 01:21:59;;;;;;;0.00;0.00;;;;;;;;;;5034218;28;20719;-80
2023/01/11 01:24:29;;;;;;;0.00;0.00;;;;;;;;;;5034085;28;20250;-80
2023/01/11 01:26:58;;;;;;;0.00;0.00;;;;;;;;;;5034839;28;20259;-79
2023/01/11 01:29:27;;;;;;;0.00;0.00;;;;;;;;;;5034703;28;20215;-80
2023/01/11 01:31:56;;;;;;;0.00;0.00;;;;;;;;;;5034247;28;20235;-80
2023/01/11 01:34:25;;;;;;;0.00;0.00;;;;;;;;;;5034297;28;20192;-80
2023/01/11 01:36:53;;;;;;;0.00;0.00;;;;;;;;;;5034340;28;20259;-80
2023/01/11 01:39:22;;;;;;;0.00;0.00;;;;;;;;;;5039610;28;20204;-81
2023/01/11 01:41:50;;;;;;;0.00;0.00;;;;;;;;;;5053765;28;20219;-80
2023/01/11 01:44:37;;;;;;;0.00;0.00;;;;;;;;;;5054199;28;20203;-80
2023/01/11 01:47:07;;;;;;;0.00;0.00;;;;;;;;;;5053984;28;20227;-79
2023/01/11 01:49:36;;;;;;;0.00;0.00;;;;;;;;;;5045203;28;20247;-80
2023/01/11 01:52:04;;;;;;;0.00;0.00;;;;;;;;;;5034321;28;20195;-80
2023/01/11 01:54:36;;;;;;;0.00;0.00;;;;;;;;;;5034263;28;20242;-80
2023/01/11 01:57:06;;;;;;;0.00;0.00;;;;;;;;;;5033749;28;20259;-79
2023/01/11 01:59:34;;;;;;;0.00;0.00;;;;;;;;;;5033732;28;20203;-80
2023/01/11 02:02:03;;;;;;;0.00;0.00;;;;;;;;;;5033607;28;20269;-79
2023/01/11 02:04:34;;;;;;;0.00;0.00;;;;;;;;;;5033578;28;20264;-80
2023/01/11 02:07:04;;;;;;;0.00;0.00;;;;;;;;;;5033858;28;20281;-80
2023/01/11 02:09:35;;;;;;;0.00;0.00;;;;;;;;;;5033458;28;20200;-80
2023/01/11 02:12:04;;;;;;;0.00;0.00;;;;;;;;;;5033866;28;20234;-79
2023/01/11 02:14:33;;;;;;;0.00;0.00;;;;;;;;;;5033597;28;20287;-80
2023/01/11 02:17:01;;;;;;;0.00;0.00;;;;;;;;;;5033725;28;20622;-80
2023/01/11 02:19:40;;;;;;;0.00;0.00;;;;;;;;;;5033761;28;20211;-80
2023/01/11 02:22:23;;;;;;;0.00;0.00;;;;;;;;;;5033685;28;20254;-80
2023/01/11 02:24:58;;;;;;;0.00;0.00;;;;;;;;;;5033815;28;20195;-79
2023/01/11 02:27:34;;;;;;;0.00;0.00;;;;;;;;;;5033614;28;20708;-80
2023/01/11 02:30:12;;;;;;;0.00;0.00;;;;;;;;;;5033376;28;20188;-80
2023/01/11 02:32:46;;;;;;;0.00;0.00;;;;;;;;;;5032839;28;20215;-80
2023/01/11 02:35:19;;;;;;;0.00;0.00;;;;;;;;;;5033371;28;20258;-80
2023/01/11 02:38:05;;;;;;;0.00;0.00;;;;;;;;;;4972892;28;20654;-80
2023/01/11 02:40:38;;;;;;;0.00;0.00;;;;;;;;;;4972581;28;20285;-80
2023/01/11 02:46:00;;;;;;;0.00;0.00;;;;;;;;;;4972404;28;20621;-79
2023/01/11 02:48:32;;;;;;;0.00;0.00;;;;;;;;;;4972799;28;20748;-80
2023/01/11 02:51:03;;;;;;;0.00;0.00;;;;;;;;;;4972459;28;20205;-80
2023/01/11 02:53:34;;;;;;;0.00;0.00;;;;;;;;;;4972366;28;20198;-80
2023/01/11 02:56:05;;;;;;;0.00;0.00;;;;;;;;;;4972345;28;20245;-80
2023/01/11 02:58:35;;;;;;;0.00;0.00;;;;;;;;;;4972617;28;20699;-80
2023/01/11 03:01:05;;;;;;;0.00;0.00;;;;;;;;;;4972493;28;20201;-80
2023/01/11 03:03:33;;;;;;;0.00;0.00;;;;;;;;;;4972230;28;20276;-80
2023/01/11 03:06:03;;;;;;;0.00;0.00;;;;;;;;;;4972261;28;20245;-80
2023/01/11 03:08:46;;;;;;;0.00;0.00;;;;;;;;;;4991630;28;20321;-80
2023/01/11 03:12:50;;;;;;;0.00;0.00;;;;;;;;;;5033314;28;20188;-81
2023/01/11 03:14:13;;;;;;;0.00;0.00;;;;;;;;;;5032819;28;20266;-81
2023/01/11 03:16:46;;;;;;;0.00;0.00;;;;;;;;;;5033186;28;20184;-80
2023/01/11 03:19:19;;;;;;;0.00;0.00;;;;;;;;;;5033161;28;20216;-80
2023/01/11 03:21:51;;;;;;;0.00;0.00;;;;;;;;;;5032980;28;20208;-81
2023/01/11 03:24:25;;;;;;;0.00;0.00;;;;;;;;;;5033070;28;20735;-80
2023/01/11 03:26:59;;;;;;;0.00;0.00;;;;;;;;;;5033148;28;20315;-80
2023/01/11 03:29:30;;;;;;;0.00;0.00;;;;;;;;;;5032900;28;20270;-81
2023/01/11 03:32:05;;;;;;;0.00;0.00;;;;;;;;;;5033063;28;20587;-81
2023/01/11 03:34:35;;;;;;;0.00;0.00;;;;;;;;;;5032752;28;20176;-81
2023/01/11 03:37:06;;;;;;;0.00;0.00;;;;;;;;;;5033120;28;20248;-81
2023/01/11 03:39:37;;;;;;;0.00;0.00;;;;;;;;;;5032074;28;20203;-80
2023/01/11 03:42:06;;;;;;;0.00;0.00;;;;;;;;;;5035339;28;20201;-81
2023/01/11 03:44:38;;;;;;;0.00;0.00;;;;;;;;;;5034856;28;20234;-81
2023/01/11 03:47:09;;;;;;;0.00;0.00;;;;;;;;;;5036283;28;20224;-81
2023/01/11 03:49:39;;;;;;;0.00;0.00;;;;;;;;;;5036657;28;20559;-81
2023/01/11 03:52:11;;;;;;;0.00;0.00;;;;;;;;;;5036114;28;20269;-81
2023/01/11 03:54:40;;;;;;;0.00;0.00;;;;;;;;;;5036163;28;20196;-81
2023/01/11 03:57:10;;;;;;;0.00;0.00;;;;;;;;;;5036478;28;20224;-81
2023/01/11 03:59:39;;;;;;;0.00;0.00;;;;;;;;;;5036387;28;20606;-81
2023/01/11 04:02:16;;;;;;;0.00;0.00;;;;;;;;;;5036349;28;20222;-81
2023/01/11 04:04:44;;;;;;;0.00;0.00;;;;;;;;;;5036026;28;20263;-81
2023/01/11 04:07:13;;;;;;;0.00;0.00;;;;;;;;;;5036038;28;20273;-81
2023/01/11 04:09:41;;;;;;;0.00;0.00;;;;;;;;;;5036010;28;20220;-81
2023/01/11 04:12:10;;;;;;;0.00;0.00;;;;;;;;;;5036067;28;20203;-81
2023/01/11 04:14:38;;;;;;;0.00;0.00;;;;;;;;;;5035768;28;20254;-80
2023/01/11 04:17:07;;;;;;;0.00;0.00;;;;;;;;;;5036032;28;20224;-80
2023/01/11 04:19:36;;;;;;;0.00;0.00;;;;;;;;;;5035481;28;20208;-81
2023/01/11 04:22:05;;;;;;;0.00;0.00;;;;;;;;;;5035799;28;20262;-80
2023/01/11 04:24:33;;;;;;;0.00;0.00;;;;;;;;;;5035384;28;20224;-81
2023/01/11 04:27:02;;;;;;;0.00;0.00;;;;;;;;;;5035761;28;20342;-80
2023/01/11 04:29:30;;;;;;;0.00;0.00;;;;;;;;;;5034691;28;20214;-81
2023/01/11 04:31:59;;;;;;;0.00;0.00;;;;;;;;;;5015529;28;20244;-81
2023/01/11 04:34:27;;;;;;;0.00;0.00;;;;;;;;;;5029975;28;20203;-81
2023/01/11 04:36:57;;;;;;;0.00;0.00;;;;;;;;;;5035915;28;20224;-81
2023/01/11 04:39:25;;;;;;;0.00;0.00;;;;;;;;;;5035901;28;20234;-82
2023/01/11 04:44:40;;;;;;;0.00;0.00;;;;;;;;;;5034991;28;20302;-81
2023/01/11 04:47:08;;;;;;;0.00;0.00;;;;;;;;;;5035354;28;20571;-81
2023/01/11 04:49:37;;;;;;;0.00;0.00;;;;;;;;;;5035324;28;20254;-81
2023/01/11 04:52:07;;;;;;;0.00;0.00;;;;;;;;;;5035126;28;20232;-80
2023/01/11 04:54:35;;;;;;;0.00;0.00;;;;;;;;;;5034715;28;20639;-81
2023/01/11 04:57:03;;;;;;;0.00;0.00;;;;;;;;;;5039827;28;20231;-81
2023/01/11 04:59:32;;;;;;;0.00;0.00;;;;;;;;;;5053077;28;20246;-81
2023/01/11 05:02:00;;;;;;;0.00;0.00;;;;;;;;;;5035127;28;20653;-80
2023/01/11 05:04:29;;;;;;;0.00;0.00;;;;;;;;;;5034983;28;20227;-81
2023/01/11 05:06:57;;;;;;;0.00;0.00;;;;;;;;;;5034604;28;20216;-81
2023/01/11 05:09:27;;;;;;;0.00;0.00;;;;;;;;;;5034925;28;20287;-80
2023/01/11 05:11:56;;;;;;;0.00;0.00;;;;;;;;;;5034948;28;20261;-81
2023/01/11 05:14:24;;;;;;;0.00;0.00;;;;;;;;;;5034784;28;20196;-81
2023/01/11 05:16:52;;;;;;;0.00;0.00;;;;;;;;;;5026995;28;20247;-81
2023/01/11 05:19:21;;;;;;;0.00;0.00;;;;;;;;;;5016129;28;20204;-81
2023/01/11 05:21:49;;;;;;;0.00;0.00;;;;;;;;;;5034912;28;20195;-81
2023/01/11 05:24:18;;;;;;;0.00;0.00;;;;;;;;;;5034808;28;20273;-81
2023/01/11 05:26:49;;;;;;;0.00;0.00;;;;;;;;;;5034582;28;20561;-81
2023/01/11 05:29:19;;;;;;;0.00;0.00;;;;;;;;;;5035025;28;20194;-81
2023/01/11 05:31:47;;;;;;;0.00;0.00;;;;;;;;;;5035273;28;20689;-82
2023/01/11 05:34:16;;;;;;;0.00;0.00;;;;;;;;;;5035704;28;20199;-82
2023/01/11 05:36:45;;;;;;;0.00;0.00;;;;;;;;;;5036943;28;20227;-82
2023/01/11 05:39:14;;;;;;;0.00;0.00;;;;;;;;;;5037331;28;20250;-82
2023/01/11 05:41:42;;;;;;;0.00;0.00;;;;;;;;;;5037781;28;20199;-83
2023/01/11 05:47:00;;;;;;;0.00;0.00;;;;;;;;;;5037245;28;20231;-82
2023/01/11 05:49:28;;;;;;;0.00;0.00;;;;;;;;;;5036865;28;20214;-82
2023/01/11 05:51:57;;;;;;;0.00;0.00;;;;;;;;;;5037713;28;20211;-82
2023/01/11 05:54:25;;;;;;;0.00;0.00;;;;;;;;;;5037060;28;20224;-82
2023/01/11 05:56:56;;;;;;;0.00;0.00;;;;;;;;;;5044355;28;20687;-82
2023/01/11 05:59:26;;;;;;;0.00;0.00;;;;;;;;;;5036488;28;20200;-82
2023/01/11 06:01:59;;;;;;;0.00;0.00;;;;;;;;;;5037825;28;20210;-81
2023/01/11 06:04:28;;;;;;;0.00;0.00;;;;;;;;;;5036586;28;20704;-82
2023/01/11 06:06:56;;;;;;;0.00;0.00;;;;;;;;;;5020729;28;20228;-82
2023/01/11 06:09:25;;;;;;;0.00;0.00;;;;;;;;;;5025713;28;20203;-82
2023/01/11 06:11:54;;;;;;;0.00;0.00;;;;;;;;;;5037538;28;20203;-82
2023/01/11 06:14:23;;;;;;;0.00;0.00;;;;;;;;;;5035803;28;20211;-82
2023/01/11 06:16:53;;;;;;;0.00;0.00;;;;;;;;;;5036463;28;20692;-82
2023/01/11 06:19:22;;;;;;;0.00;0.00;;;;;;;;;;5037034;28;20689;-81
2023/01/11 06:21:52;;;;;;;0.00;0.00;;;;;;;;;;5036999;28;20200;-82
2023/01/11 06:24:21;;;;;;;0.00;0.00;;;;;;;;;;5036148;28;20341;-82
2023/01/11 06:26:52;;;;;;;0.00;0.00;;;;;;;;;;5037166;28;20677;-82
2023/01/11 06:29:21;;;;;;;0.00;0.00;;;;;;;;;;5037400;28;20330;-82
2023/01/11 06:31:50;;;;;;;0.00;0.00;;;;;;;;;;5042288;28;20683;-82
2023/01/11 06:34:20;;;;;;;0.00;0.00;;;;;;;;;;5036585;28;20278;-82
2023/01/11 06:36:48;;;;;;;0.00;0.00;;;;;;;;;;5035313;28;20563;-80
2023/01/11 06:39:17;;;;;;;0.00;0.00;;;;;;;;;;5033370;28;20207;-80
2023/01/11 06:41:45;;;;;;;0.00;0.00;;;;;;;;;;5033544;28;20232;-80
2023/01/11 06:44:13;;;;;;;0.00;0.00;;;;;;;;;;5033158;28;20253;-80
2023/01/11 06:46:42;;;;;;;0.00;0.00;;;;;;;;;;5033091;28;20247;-80
2023/01/11 06:49:11;;;;;;;0.00;0.00;;;;;;;;;;5033255;28;20208;-80
2023/01/11 06:51:41;;;;;;;0.00;0.00;;;;;;;;;;5033022;28;20243;-80
2023/01/11 06:54:09;;;;;;;0.00;0.00;;;;;;;;;;5033116;28;20635;-80
2023/01/11 06:56:37;;;;;;;0.00;0.00;;;;;;;;;;5033451;28;20633;-80
2023/01/11 06:59:06;;;;;;;0.00;0.00;;;;;;;;;;5033422;28;20610;-80
2023/01/11 07:01:35;;;;;;;0.00;0.00;;;;;;;;;;5014673;28;20239;-81
2023/01/11 07:04:03;;;;;;;0.00;0.00;;;;;;;;;;5013181;28;20228;-81
2023/01/11 07:06:35;;;;;;;0.00;0.00;;;;;;;;;;5013059;28;20717;-81
2023/01/11 07:09:05;;;;;;;0.00;0.00;;;;;;;;;;5013532;28;20216;-80
2023/01/11 07:11:37;;;;;;;0.00;0.00;;;;;;;;;;5013200;28;20215;-80
2023/01/11 07:14:06;;;;;;;0.00;0.00;;;;;;;;;;5013399;28;20681;-80
2023/01/11 07:16:34;;;;;;;0.00;0.00;;;;;;;;;;5023535;28;20195;-81
2023/01/11 07:19:02;;;;;;;0.00;0.00;;;;;;;;;;5034583;28;20207;-80
2023/01/11 07:21:31;;;;;;;0.00;0.00;;;;;;;;;;5036672;28;20203;-80
2023/01/11 07:24:00;;;;;;;0.00;0.00;;;;;;;;;;5025835;28;20243;-80
2023/01/11 07:26:31;;;;;;;0.00;0.00;;;;;;;;;;5036557;28;20269;-80
2023/01/11 07:29:00;;;;;;;0.00;0.00;;;;;;;;;;5036664;28;20204;-80
2023/01/11 07:31:28;;;;;;;0.00;0.00;;;;;;;;;;5016856;28;20213;-80
2023/01/11 07:33:57;;;;;;;0.00;0.00;;;;;;;;;;5017193;28;20200;-80
2023/01/11 07:36:25;;;;;;;0.00;0.00;;;;;;;;;;5017355;28;20247;-80
2023/01/11 07:38:53;;;;;;;0.00;0.00;;;;;;;;;;5016955;28;20232;-80
2023/01/11 07:44:09;;;;;;;0.00;0.00;;;;;;;;;;5016700;28;20197;-80
2023/01/11 07:46:37;;;;;;;0.00;0.00;;;;;;;;;;5016406;28;20275;-80
2023/01/11 07:49:06;;;;;;;0.00;0.00;;;;;;;;;;5016789;28;20200;-80
2023/01/11 07:51:34;;;;;;;0.00;0.00;;;;;;;;;;5016416;28;20259;-81
2023/01/11 07:54:03;;;;;;;0.00;0.00;;;;;;;;;;5016985;28;20232;-80
2023/01/11 07:56:31;;;;;;;0.00;0.00;;;;;;;;;;5016225;28;20200;-80
2023/01/11 07:59:00;;;;;;;0.00;0.00;;;;;;;;;;5018633;28;20204;-80
2023/01/11 08:01:29;;;;;;;0.00;0.00;;;;;;;;;;5036628;28;20203;-81
2023/01/11 08:03:58;;;;;;;0.00;0.00;;;;;;;;;;5036035;28;20731;-80
2023/01/11 08:06:26;;;;;;;0.00;0.00;;;;;;;;;;5036030;28;20224;-80
2023/01/11 08:08:55;;;;;;;0.00;0.00;;;;;;;;;;5036255;28;20266;-80
2023/01/11 08:16:58;;;;;;;0.00;0.00;;;;;;;;;;5035942;28;20631;-80
2023/01/11 08:19:26;;;;;;;0.00;0.00;;;;;;;;;;5036314;28;20207;-79
2023/01/11 08:21:54;;;;;;;0.00;0.00;;;;;;;;;;5035908;28;20224;-80
2023/01/11 08:24:23;;;;;;;0.00;0.00;;;;;;;;;;5036041;28;20222;-80
2023/01/11 08:26:51;;;;;;;0.00;0.00;;;;;;;;;;5015933;28;20225;-79
2023/01/11 08:29:20;;;;;;;0.00;0.00;;;;;;;;;;5019453;28;20296;-79
2023/01/11 08:31:49;;;;;;;0.00;0.00;;;;;;;;;;5034478;28;20246;-79
2023/01/11 08:34:19;;;;;;;0.00;0.00;;;;;;;;;;5035390;28;20250;-79
2023/01/11 08:36:47;;;;;;;0.00;0.00;;;;;;;;;;5035679;28;20696;-80
2023/01/11 08:39:15;;;;;;;0.00;0.00;;;;;;;;;;5035603;28;20207;-79
2023/01/11 08:41:45;;;;;;;0.00;0.00;;;;;;;;;;5035853;28;20657;-79
2023/01/11 08:44:15;;;;;;;0.00;0.00;;;;;;;;;;5035449;28;20204;-80
2023/01/11 08:47:00;;;;;;;0.00;0.00;;;;;;;;;;5035302;28;20314;-80
2023/01/11 08:49:30;;;;;;;0.00;0.00;;;;;;;;;;5035469;28;20204;-79
2023/01/11 08:51:58;;;;;;;0.00;0.00;;;;;;;;;;5018814;28;20259;-79
2023/01/11 08:54:27;;;;;;;0.00;0.00;;;;;;;;;;5030235;28;20263;-80
2023/01/11 08:56:55;;;;;;;0.00;0.00;;;;;;;;;;5035292;28;20224;-80
2023/01/11 08:59:24;;;;;;;0.00;0.00;;;;;;;;;;5035306;28;20822;-79
2023/01/11 09:01:52;;;;;;;0.00;0.00;;;;;;;;;;5035263;28;20207;-79
2023/01/11 09:04:21;;;;;;;0.00;0.00;;;;;;;;;;5034952;28;20227;-79
2023/01/11 09:06:54;;;;;;;0.00;0.00;;;;;;;;;;5034585;28;20310;-79
2023/01/11 09:09:23;;;;;;;0.00;0.00;;;;;;;;;;5034779;28;20200;-79
2023/01/11 09:11:55;;;;;;;0.00;0.00;;;;;;;;;;5035348;28;20615;-80
2023/01/11 09:14:25;;;;;;;0.00;0.00;;;;;;;;;;5035645;28;20235;-79
2023/01/11 09:16:53;;;;;;;0.00;0.00;;;;;;;;;;5034903;28;20262;-79
2023/01/11 09:19:22;;;;;;;0.00;0.00;;;;;;;;;;5034739;28;20660;-79
2023/01/11 09:21:51;;;;;;;0.00;0.00;;;;;;;;;;5035118;28;20533;-80
2023/01/11 09:24:21;;;;;;;0.00;0.00;;;;;;;;;;5026978;28;20207;-80
2023/01/11 09:26:49;;;;;;;0.00;0.00;;;;;;;;;;5034383;28;20277;-79
2023/01/11 09:29:18;;;;;;;0.00;0.00;;;;;;;;;;5034720;28;20576;-79
2023/01/11 09:31:47;;;;;;;0.00;0.00;;;;;;;;;;5034342;28;20263;-80
2023/01/11 09:34:15;;;;;;;0.00;0.00;;;;;;;;;;5034776;28;20274;-79
2023/01/11 09:36:47;;;;;;;0.00;0.00;;;;;;;;;;5034194;28;20192;-79
2023/01/11 09:39:19;;;;;;;0.00;0.00;;;;;;;;;;5034171;28;20223;-79
2023/01/11 09:42:04;;;;;;;0.00;0.00;;;;;;;;;;5034097;28;20192;-79
2023/01/11 09:44:35;;;;;;;0.00;0.00;;;;;;;;;;5034185;28;20207;-79
2023/01/11 09:47:12;;;;;;;0.00;0.00;;;;;;;;;;5034336;28;20727;-79
2023/01/11 09:49:44;;;;;;;0.00;0.00;;;;;;;;;;5034118;28;20208;-79
2023/01/11 09:52:18;;;;;;;0.00;0.00;;;;;;;;;;5034374;28;20273;-79
2023/01/11 09:54:47;;;;;;;0.00;0.00;;;;;;;;;;5034206;28;20644;-79
2023/01/11 09:57:19;;;;;;;0.00;0.00;;;;;;;;;;5034245;28;20224;-79
2023/01/11 09:59:51;;;;;;;0.00;0.00;;;;;;;;;;5034258;28;20609;-79
2023/01/11 10:02:27;;;;;;;0.00;0.00;;;;;;;;;;5034000;28;20188;-80
2023/01/11 10:05:05;;;;;;;0.00;0.00;;;;;;;;;;5030744;28;20731;-79
2023/01/11 10:07:42;;;;;;;0.00;0.00;;;;;;;;;;5033625;28;20259;-79
2023/01/11 10:10:16;;;;;;;0.00;0.00;;;;;;;;;;5034088;28;20599;-79
2023/01/11 10:13:09;;;;;;;0.00;0.00;;;;;;;;;;5033558;28;20209;-79
2023/01/11 10:16:03;;;;;;;0.00;0.00;;;;;;;;;;5034102;28;20610;-79
2023/01/11 10:19:01;;;;;;;0.00;0.00;;;;;;;;;;5033780;28;20299;-79
2023/01/11 10:21:53;;;;;;;0.00;0.00;;;;;;;;;;5033340;28;20290;-79
2023/01/11 10:24:24;;;;;;;0.00;0.00;;;;;;;;;;5033514;28;20200;-79
2023/01/11 10:26:55;;;;;;;0.00;0.00;;;;;;;;;;5033733;28;20646;-79
2023/01/11 10:29:38;;;;;;;0.00;0.00;;;;;;;;;;5033441;28;20211;-80
2023/01/11 10:35:16;;;;;;;0.00;0.00;;;;;;;;;;5016540;28;20240;-79
2023/01/11 10:37:53;;;;;;;0.00;0.00;;;;;;;;;;5013873;28;20228;-79
2023/01/11 10:40:34;;;;;;;0.00;0.00;;;;;;;;;;5013598;28;20188;-80
2023/01/11 10:43:07;;;;;;;0.00;0.00;;;;;;;;;;5013544;28;20220;-79
2023/01/11 10:45:40;;;;;;;0.00;0.00;;;;;;;;;;5013507;28;20200;-80
2023/01/11 10:48:13;;;;;;;0.00;0.00;;;;;;;;;;5013360;28;20239;-79
2023/01/11 10:50:45;;;;;;;0.00;0.00;;;;;;;;;;5021103;28;20195;-79
2023/01/11 10:53:16;;;;;;;0.00;0.00;;;;;;;;;;5033336;28;20239;-79
2023/01/11 10:55:47;;;;;;;0.00;0.00;;;;;;;;;;5037686;28;20199;-80
2023/01/11 10:58:24;;;;;;;0.00;0.00;;;;;;;;;;5037564;28;20227;-80
2023/01/11 11:00:59;;;;;;;0.00;0.00;;;;;;;;;;5037587;28;20201;-80
2023/01/11 11:03:46;;;;;;;0.00;0.00;;;;;;;;;;5036961;28;20211;-79
2023/01/11 11:06:20;;;;;;;0.00;0.00;;;;;;;;;;5037559;28;20742;-80
2023/01/11 11:08:52;;;;;;;0.00;0.00;;;;;;;;;;5037177;28;20220;-80
2023/01/11 11:11:23;;;;;;;0.00;0.00;;;;;;;;;;5037185;28;20558;-80
2023/01/11 11:13:55;;;;;;;0.00;0.00;;;;;;;;;;5037210;28;20601;-80
2023/01/11 11:16:33;;;;;;;0.00;0.00;;;;;;;;;;5037282;28;20192;-79
2023/01/11 11:19:02;;;;;;;0.00;0.00;;;;;;;;;;5037176;28;20214;-80
2023/01/11 11:21:32;;;;;;;0.00;0.00;;;;;;;;;;5037315;28;20660;-80
2023/01/11 11:24:02;;;;;;;0.00;0.00;;;;;;;;;;5037580;28;20192;-80
2023/01/11 11:26:35;;;;;;;0.00;0.00;;;;;;;;;;5036883;28;20200;-80
2023/01/11 11:29:05;;;;;;;0.00;0.00;;;;;;;;;;5036678;28;20238;-80
2023/01/11 11:31:36;;;;;;;0.00;0.00;;;;;;;;;;5036566;28;20234;-81
2023/01/11 11:34:06;;;;;;;0.00;0.00;;;;;;;;;;5033830;28;20565;-81
2023/01/11 11:36:42;;;;;;;0.00;0.00;;;;;;;;;;5016978;28;20250;-81
2023/01/11 11:39:12;;;;;;;0.00;0.00;;;;;;;;;;5017037;28;20616;-80
2023/01/11 11:41:48;;;;;;;0.00;0.00;;;;;;;;;;5016729;28;20201;-81
2023/01/11 11:44:18;;;;;;;0.00;0.00;;;;;;;;;;5035070;28;20668;-81
2023/01/11 11:47:01;;;;;;;0.00;0.00;;;;;;;;;;5036510;28;20289;-80
2023/01/11 11:49:30;;;;;;;0.00;0.00;;;;;;;;;;5036268;28;20211;-81
2023/01/11 11:51:59;;;;;;;0.00;0.00;;;;;;;;;;5036408;28;20277;-81
2023/01/11 11:54:30;;;;;;;0.00;0.00;;;;;;;;;;5036163;28;20204;-80
2023/01/11 11:56:59;;;;;;;0.00;0.00;;;;;;;;;;5036470;28;20234;-81
2023/01/11 11:59:31;;;;;;;0.00;0.00;;;;;;;;;;5036471;28;20668;-81
2023/01/11 12:02:03;;;;;;;0.00;0.00;;;;;;;;;;5036159;28;20208;-81
2023/01/11 12:04:35;;;;;;;0.00;0.00;;;;;;;;;;5049251;28;20211;-81
2023/01/11 12:07:08;;;;;;;0.00;0.00;;;;;;;;;;5056103;28;20261;-80
2023/01/11 12:09:37;;;;;;;0.00;0.00;;;;;;;;;;5056249;28;20241;-81
2023/01/11 12:12:05;;;;;;;0.00;0.00;;;;;;;;;;5055975;28;20234;-80
2023/01/11 12:14:35;;;;;;;0.00;0.00;;;;;;;;;;5055712;28;20277;-81
2023/01/11 12:17:22;;;;;;;0.00;0.00;;;;;;;;;;5055926;28;20234;-81
2023/01/11 12:19:51;;;;;;;0.00;0.00;;;;;;;;;;5056072;28;20608;-80
2023/01/11 12:22:20;;;;;;;0.00;0.00;;;;;;;;;;5055973;28;20709;-80
2023/01/11 12:25:02;;;;;;;0.00;0.00;;;;;;;;;;5055797;28;20207;-80
2023/01/11 12:27:36;;;;;;;0.00;0.00;;;;;;;;;;5055488;28;20270;-81
2023/01/11 12:30:11;;;;;;;0.00;0.00;;;;;;;;;;5055837;28;20636;-80
2023/01/11 12:33:05;;;;;;;0.00;0.00;;;;;;;;;;5055712;28;20233;-81
2023/01/11 12:35:39;;;;;;;0.00;0.00;;;;;;;;;;5055740;28;20628;-81
2023/01/11 12:38:17;;;;;;;0.00;0.00;;;;;;;;;;5055457;28;20591;-81
2023/01/11 12:40:51;;;;;;;0.00;0.00;;;;;;;;;;5055231;28;20253;-80
2023/01/11 12:43:24;;;;;;;0.00;0.00;;;;;;;;;;5055253;28;20237;-80
2023/01/11 12:45:57;;;;;;;0.00;0.00;;;;;;;;;;5055084;28;20245;-80
2023/01/11 12:48:33;;;;;;;0.00;0.00;;;;;;;;;;5055236;28;20763;-80
2023/01/11 12:51:08;;;;;;;0.00;0.00;;;;;;;;;;5035551;28;20234;-80
2023/01/11 12:53:49;;;;;;;0.00;0.00;;;;;;;;;;5035147;28;20195;-80
2023/01/11 12:56:26;;;;;;;0.00;0.00;;;;;;;;;;5035156;28;20239;-80
2023/01/11 12:58:56;;;;;;;0.00;0.00;;;;;;;;;;5035486;28;20668;-80
2023/01/11 13:01:34;;;;;;;0.00;0.00;;;;;;;;;;5035728;28;20657;-80
2023/01/11 13:04:20;;;;;;;0.00;0.00;;;;;;;;;;5035159;28;20576;-80
2023/01/11 13:06:55;;;;;;;0.00;0.00;;;;;;;;;;5024341;28;20228;-80
2023/01/11 13:09:30;;;;;;;0.00;0.00;;;;;;;;;;5035197;28;20247;-80
2023/01/11 13:12:01;;;;;;;0.00;0.00;;;;;;;;;;5034729;28;20649;-79
2023/01/11 13:14:39;;;;;;;0.00;0.00;;;;;;;;;;5034988;28;20192;-80
2023/01/11 13:17:12;;;;;;;0.00;0.00;;;;;;;;;;5034187;28;20262;-79
2023/01/11 13:19:43;;;;;;;0.00;0.00;;;;;;;;;;5034707;28;20199;-80
2023/01/11 13:22:15;;;;;;;0.00;0.00;;;;;;;;;;5035127;28;20672;-80
2023/01/11 13:24:46;;;;;;;0.00;0.00;;;;;;;;;;5034604;28;20188;-80
2023/01/11 13:27:17;;;;;;;0.00;0.00;;;;;;;;;;5033855;28;20224;-79
2023/01/11 13:29:46;;;;;;;0.00;0.00;;;;;;;;;;5034752;28;20254;-80
2023/01/11 13:32:17;;;;;;;0.00;0.00;;;;;;;;;;5034663;28;20204;-80
2023/01/11 13:34:47;;;;;;;0.00;0.00;;;;;;;;;;5034336;28;20232;-80
2023/01/11 13:37:20;;;;;;;0.00;0.00;;;;;;;;;;5034384;28;20220;-80
2023/01/11 13:39:52;;;;;;;0.00;0.00;;;;;;;;;;5034489;28;20633;-80
2023/01/11 13:42:22;;;;;;;0.00;0.00;;;;;;;;;;5035098;28;20239;-80
2023/01/11 13:44:54;;;;;;;0.00;0.00;;;;;;;;;;5035077;28;20393;-80
2023/01/11 13:47:27;;;;;;;0.00;0.00;;;;;;;;;;5033993;28;20731;-80
2023/01/11 13:50:01;;;;;;;0.00;0.00;;;;;;;;;;5034506;28;20257;-79
2023/01/11 13:52:38;;;;;;;0.00;0.00;;;;;;;;;;5034392;28;20593;-80
2023/01/11 13:55:11;;;;;;;0.00;0.00;;;;;;;;;;5034412;28;20648;-80
2023/01/11 13:57:55;;;;;;;0.00;0.00;;;;;;;;;;5033991;28;20228;-79
2023/01/11 14:00:27;;;;;;;0.00;0.00;;;;;;;;;;5034258;28;20196;-79
2023/01/11 14:02:59;;;;;;;0.00;0.00;;;;;;;;;;5033714;28;20222;-79
2023/01/11 14:05:29;;;;;;;0.00;0.00;;;;;;;;;;5034351;28;20235;-79
2023/01/11 14:08:15;;;;;;;0.00;0.00;;;;;;;;;;5034263;28;20591;-80
2023/01/11 14:10:48;;;;;;;0.00;0.00;;;;;;;;;;5033404;28;20192;-79
2023/01/11 14:16:22;;;;;;;0.00;0.00;;;;;;;;;;5031847;28;20522;-78
2023/01/11 14:18:54;;;;;;;0.00;0.00;;;;;;;;;;5032334;28;20262;-79
2023/01/11 14:21:25;;;;;;;0.00;0.00;;;;;;;;;;5032127;28;20188;-79
2023/01/11 14:23:55;;;;;;;0.00;0.00;;;;;;;;;;5032532;28;20254;-79
2023/01/11 14:26:51;;;;;;;0.00;0.00;;;;;;;;;;5032262;28;20633;-79
2023/01/11 14:29:44;;;;;;;0.00;0.00;;;;;;;;;;5032527;28;20219;-79
2023/01/11 14:32:17;;;;;;;0.00;0.00;;;;;;;;;;5032264;28;20236;-80
2023/01/11 14:35:04;;;;;;;0.00;0.00;;;;;;;;;;5032165;28;20613;-79
2023/01/11 14:37:57;;;;;;;0.00;0.00;;;;;;;;;;5032058;28;20223;-79
2023/01/11 14:40:39;;;;;;;0.00;0.00;;;;;;;;;;5032193;28;20184;-79
2023/01/11 14:43:22;;;;;;;0.00;0.00;;;;;;;;;;5032335;28;20698;-81
2023/01/11 14:46:00;;;;;;;0.00;0.00;;;;;;;;;;5030350;28;20211;-79
2023/01/11 14:48:32;;;;;;;0.00;0.00;;;;;;;;;;5020227;28;20227;-78
2023/01/11 14:51:10;;;;;;;0.00;0.00;;;;;;;;;;5027029;28;20207;-79
2023/01/11 14:53:42;;;;;;;0.00;0.00;;;;;;;;;;5031734;28;20207;-79
2023/01/11 14:56:25;;;;;;;0.00;0.00;;;;;;;;;;5031740;28;20203;-79
2023/01/11 14:59:03;;;;;;;0.00;0.00;;;;;;;;;;5039391;28;20615;-78
2023/01/11 15:02:00;;;;;;;0.00;0.00;;;;;;;;;;5031978;28;20238;-80
2023/01/11 15:04:30;;;;;;;0.00;0.00;;;;;;;;;;5031292;28;20311;-78
2023/01/11 15:06:58;;;;;;;0.00;0.00;;;;;;;;;;5037120;28;20222;-79
2023/01/11 15:09:43;;;;;;;0.00;0.00;;;;;;;;;;5030908;28;20224;-79
2023/01/11 15:12:12;;;;;;;0.00;0.00;;;;;;;;;;5031603;28;20668;-79
2023/01/11 15:14:46;;;;;;;0.00;0.00;;;;;;;;;;5031870;28;20215;-80
2023/01/11 15:20:08;;;;;;;0.00;0.00;;;;;;;;;;5031556;28;20192;-78
2023/01/11 15:22:36;;;;;;;0.00;0.00;;;;;;;;;;5031676;28;20212;-79
2023/01/11 15:25:06;;;;;;;0.00;0.00;;;;;;;;;;5031201;28;20663;-79
2023/01/11 15:27:35;;;;;;;0.00;0.00;;;;;;;;;;5031351;28;20250;-79
2023/01/11 15:30:07;;;;;;;0.00;0.00;;;;;;;;;;5031303;28;20601;-78
2023/01/11 15:32:36;;;;;;;0.00;0.00;;;;;;;;;;5032656;28;20602;-80
2023/01/11 15:35:18;;;;;;;0.00;0.00;;;;;;;;;;5033105;28;20200;-79
2023/01/11 15:37:51;;;;;;;0.00;0.00;;;;;;;;;;5033583;28;20230;-80
2023/01/11 15:40:20;;;;;;;0.00;0.00;;;;;;;;;;5034997;28;20195;-79
2023/01/11 15:43:08;;;;;;;0.00;0.00;;;;;;;;;;5036770;28;20961;-79
2023/01/11 15:48:48;;;;;;;0.00;0.00;;;;;;;;;;5017280;28;20224;-79